sensor_id;sensor_type;location;lat;lon;timestamp;P1;durP1;ratioP1;P2;durP2;ratioP2
20669;SDS011;10494;50.868;4.180;2023-11-18T00:00:16;26.90;;;13.30;;
20669;SDS011;10494;50.868;4.180;2023-11-18T00:02:42;32.63;;;14.25;;
20669;SDS011;10494;50.868;4.180;2023-11-18T00:05:08;25.63;;;13.07;;
20669;SDS011;10494;50.868;4.180;2023-11-18T00:07:34;32.43;;;14.90;;
20669;SDS011;10494;50.868;4.180;2023-11-18T00:10:00;31.75;;;14.00;;
20669;SDS011;10494;50.868;4.180;2023-11-18T00:12:26;33.80;;;14.90;;
20669;SDS011;10494;50.868;4.180;2023-11-18T00:14:51;31.27;;;13.97;;
20669;SDS011;10494;50.868;4.180;2023-11-18T00:17:17;27.57;;;14.53;;
20669;SDS011;10494;50.868;4.180;2023-11-18T00:19:43;27.83;;;14.80;;
20669;SDS011;10494;50.868;4.180;2023-11-18T00:22:09;35.57;;;15.43;;
20669;SDS011;10494;50.868;4.180;2023-11-18T00:24:36;31.27;;;14.87;;
20669;SDS011;10494;50.868;4.180;2023-11-18T00:27:01;28.20;;;15.10;;
20669;SDS011;10494;50.868;4.180;2023-11-18T00:29:33;35.60;;;14.83;;
20669;SDS011;10494;50.868;4.180;2023-11-18T00:31:59;27.87;;;14.10;;
20669;SDS011;10494;50.868;4.180;2023-11-18T00:34:29;30.47;;;13.50;;
20669;SDS011;10494;50.868;4.180;2023-11-18T00:36:55;27.03;;;13.00;;
20669;SDS011;10494;50.868;4.180;2023-11-18T00:39:22;28.87;;;13.60;;
20669;SDS011;10494;50.868;4.180;2023-11-18T00:41:48;28.40;;;12.47;;
20669;SDS011;10494;50.868;4.180;2023-11-18T00:44:14;30.27;;;13.97;;
20669;SDS011;10494;50.868;4.180;2023-11-18T00:46:39;25.40;;;13.53;;
20669;SDS011;10494;50.868;4.180;2023-11-18T00:49:05;27.13;;;12.77;;
20669;SDS011;10494;50.868;4.180;2023-11-18T00:51:31;27.07;;;12.43;;
20669;SDS011;10494;50.868;4.180;2023-11-18T00:53:57;27.00;;;12.33;;
20669;SDS011;10494;50.868;4.180;2023-11-18T00:56:23;29.43;;;12.57;;
20669;SDS011;10494;50.868;4.180;2023-11-18T00:58:49;20.67;;;11.87;;
20669;SDS011;10494;50.868;4.180;2023-11-18T01:01:14;24.05;;;11.82;;
20669;SDS011;10494;50.868;4.180;2023-11-18T01:03:46;29.27;;;12.93;;
20669;SDS011;10494;50.868;4.180;2023-11-18T01:06:12;25.93;;;12.00;;
20669;SDS011;10494;50.868;4.180;2023-11-18T01:08:40;26.93;;;12.10;;
20669;SDS011;10494;50.868;4.180;2023-11-18T01:11:09;25.90;;;10.47;;
20669;SDS011;10494;50.868;4.180;2023-11-18T01:13:35;22.53;;;9.73;;
20669;SDS011;10494;50.868;4.180;2023-11-18T01:16:00;29.65;;;11.00;;
20669;SDS011;10494;50.868;4.180;2023-11-18T01:18:27;25.87;;;10.53;;
20669;SDS011;10494;50.868;4.180;2023-11-18T01:20:52;25.17;;;11.37;;
20669;SDS011;10494;50.868;4.180;2023-11-18T01:23:18;27.47;;;11.00;;
20669;SDS011;10494;50.868;4.180;2023-11-18T01:25:44;21.23;;;10.80;;
20669;SDS011;10494;50.868;4.180;2023-11-18T01:28:09;23.20;;;11.20;;
20669;SDS011;10494;50.868;4.180;2023-11-18T01:30:35;21.67;;;10.23;;
20669;SDS011;10494;50.868;4.180;2023-11-18T01:33:01;23.77;;;11.03;;
20669;SDS011;10494;50.868;4.180;2023-11-18T01:35:27;24.43;;;10.20;;
20669;SDS011;10494;50.868;4.180;2023-11-18T01:37:53;23.97;;;10.53;;
20669;SDS011;10494;50.868;4.180;2023-11-18T01:40:23;23.93;;;10.43;;
20669;SDS011;10494;50.868;4.180;2023-11-18T01:42:48;21.77;;;9.50;;
20669;SDS011;10494;50.868;4.180;2023-11-18T01:45:14;18.03;;;9.27;;
20669;SDS011;10494;50.868;4.180;2023-11-18T01:47:41;22.65;;;11.05;;
20669;SDS011;10494;50.868;4.180;2023-11-18T01:50:08;22.57;;;9.07;;
20669;SDS011;10494;50.868;4.180;2023-11-18T01:52:37;19.60;;;9.87;;
20669;SDS011;10494;50.868;4.180;2023-11-18T01:55:03;20.80;;;10.20;;
20669;SDS011;10494;50.868;4.180;2023-11-18T01:57:31;24.37;;;10.77;;
20669;SDS011;10494;50.868;4.180;2023-11-18T02:00:02;26.73;;;9.63;;
20669;SDS011;10494;50.868;4.180;2023-11-18T02:02:31;28.03;;;9.63;;
20669;SDS011;10494;50.868;4.180;2023-11-18T02:04:58;23.30;;;9.77;;
20669;SDS011;10494;50.868;4.180;2023-11-18T02:07:26;19.47;;;8.57;;
20669;SDS011;10494;50.868;4.180;2023-11-18T02:09:53;18.70;;;8.83;;
20669;SDS011;10494;50.868;4.180;2023-11-18T02:14:54;17.70;;;7.67;;
20669;SDS011;10494;50.868;4.180;2023-11-18T02:17:22;18.87;;;8.20;;
20669;SDS011;10494;50.868;4.180;2023-11-18T02:19:53;21.33;;;8.40;;
20669;SDS011;10494;50.868;4.180;2023-11-18T02:22:22;17.23;;;7.60;;
20669;SDS011;10494;50.868;4.180;2023-11-18T02:24:49;23.00;;;8.53;;
20669;SDS011;10494;50.868;4.180;2023-11-18T02:27:15;21.07;;;8.13;;
20669;SDS011;10494;50.868;4.180;2023-11-18T02:29:42;21.53;;;7.13;;
20669;SDS011;10494;50.868;4.180;2023-11-18T02:35:02;20.57;;;7.77;;
20669;SDS011;10494;50.868;4.180;2023-11-18T02:37:35;22.33;;;6.70;;
20669;SDS011;10494;50.868;4.180;2023-11-18T02:40:07;21.37;;;6.80;;
20669;SDS011;10494;50.868;4.180;2023-11-18T02:42:36;27.43;;;7.60;;
20669;SDS011;10494;50.868;4.180;2023-11-18T02:45:05;23.83;;;7.00;;
20669;SDS011;10494;50.868;4.180;2023-11-18T02:47:33;22.50;;;6.83;;
20669;SDS011;10494;50.868;4.180;2023-11-18T02:49:59;22.52;;;7.30;;
20669;SDS011;10494;50.868;4.180;2023-11-18T02:52:31;21.57;;;6.57;;
20669;SDS011;10494;50.868;4.180;2023-11-18T02:54:58;17.93;;;6.53;;
20669;SDS011;10494;50.868;4.180;2023-11-18T02:57:23;22.77;;;6.50;;
20669;SDS011;10494;50.868;4.180;2023-11-18T02:59:49;21.20;;;6.17;;
20669;SDS011;10494;50.868;4.180;2023-11-18T03:02:14;17.83;;;6.32;;
20669;SDS011;10494;50.868;4.180;2023-11-18T03:04:40;18.87;;;6.43;;
20669;SDS011;10494;50.868;4.180;2023-11-18T03:07:07;15.27;;;6.30;;
20669;SDS011;10494;50.868;4.180;2023-11-18T03:09:33;19.27;;;6.00;;
20669;SDS011;10494;50.868;4.180;2023-11-18T03:12:00;18.67;;;5.50;;
20669;SDS011;10494;50.868;4.180;2023-11-18T03:14:25;14.10;;;5.83;;
20669;SDS011;10494;50.868;4.180;2023-11-18T03:16:51;12.30;;;5.28;;
20669;SDS011;10494;50.868;4.180;2023-11-18T03:19:16;19.07;;;4.30;;
20669;SDS011;10494;50.868;4.180;2023-11-18T03:21:42;23.20;;;5.07;;
20669;SDS011;10494;50.868;4.180;2023-11-18T03:24:08;16.83;;;4.83;;
20669;SDS011;10494;50.868;4.180;2023-11-18T03:26:34;16.77;;;4.70;;
20669;SDS011;10494;50.868;4.180;2023-11-18T03:29:00;10.70;;;4.35;;
20669;SDS011;10494;50.868;4.180;2023-11-18T03:31:25;13.70;;;4.97;;
20669;SDS011;10494;50.868;4.180;2023-11-18T03:33:51;11.90;;;4.40;;
20669;SDS011;10494;50.868;4.180;2023-11-18T03:36:16;12.70;;;4.07;;
20669;SDS011;10494;50.868;4.180;2023-11-18T03:38:43;11.17;;;3.63;;
20669;SDS011;10494;50.868;4.180;2023-11-18T03:41:09;13.10;;;3.93;;
20669;SDS011;10494;50.868;4.180;2023-11-18T03:43:34;17.77;;;4.17;;
20669;SDS011;10494;50.868;4.180;2023-11-18T03:46:00;9.93;;;3.23;;
20669;SDS011;10494;50.868;4.180;2023-11-18T03:48:25;12.65;;;3.72;;
20669;SDS011;10494;50.868;4.180;2023-11-18T03:50:51;19.92;;;3.35;;
20669;SDS011;10494;50.868;4.180;2023-11-18T03:53:17;14.70;;;3.80;;
20669;SDS011;10494;50.868;4.180;2023-11-18T03:55:43;8.83;;;3.60;;
20669;SDS011;10494;50.868;4.180;2023-11-18T03:58:08;10.95;;;3.70;;
20669;SDS011;10494;50.868;4.180;2023-11-18T04:00:34;9.70;;;3.88;;
20669;SDS011;10494;50.868;4.180;2023-11-18T04:03:00;16.52;;;3.75;;
20669;SDS011;10494;50.868;4.180;2023-11-18T04:05:25;8.85;;;3.08;;
20669;SDS011;10494;50.868;4.180;2023-11-18T04:07:51;11.03;;;3.20;;
20669;SDS011;10494;50.868;4.180;2023-11-18T04:10:16;11.63;;;3.13;;
20669;SDS011;10494;50.868;4.180;2023-11-18T04:12:43;15.07;;;3.23;;
20669;SDS011;10494;50.868;4.180;2023-11-18T04:15:12;10.30;;;3.13;;
20669;SDS011;10494;50.868;4.180;2023-11-18T04:17:37;15.43;;;3.92;;
20669;SDS011;10494;50.868;4.180;2023-11-18T04:20:03;13.68;;;3.00;;
20669;SDS011;10494;50.868;4.180;2023-11-18T04:22:37;6.80;;;2.60;;
20669;SDS011;10494;50.868;4.180;2023-11-18T04:25:09;15.13;;;2.33;;
20669;SDS011;10494;50.868;4.180;2023-11-18T04:27:36;8.98;;;2.38;;
20669;SDS011;10494;50.868;4.180;2023-11-18T04:30:03;4.97;;;2.47;;
20669;SDS011;10494;50.868;4.180;2023-11-18T04:32:29;14.57;;;2.60;;
20669;SDS011;10494;50.868;4.180;2023-11-18T04:34:57;10.03;;;2.43;;
20669;SDS011;10494;50.868;4.180;2023-11-18T04:37:23;7.57;;;2.63;;
20669;SDS011;10494;50.868;4.180;2023-11-18T04:39:50;7.23;;;2.10;;
20669;SDS011;10494;50.868;4.180;2023-11-18T04:42:15;11.17;;;2.63;;
20669;SDS011;10494;50.868;4.180;2023-11-18T04:44:41;8.80;;;2.33;;
20669;SDS011;10494;50.868;4.180;2023-11-18T04:47:07;10.45;;;2.80;;
20669;SDS011;10494;50.868;4.180;2023-11-18T04:49:32;8.40;;;2.30;;
20669;SDS011;10494;50.868;4.180;2023-11-18T04:51:58;15.68;;;2.90;;
20669;SDS011;10494;50.868;4.180;2023-11-18T04:54:24;16.60;;;2.97;;
20669;SDS011;10494;50.868;4.180;2023-11-18T04:56:49;8.70;;;2.30;;
20669;SDS011;10494;50.868;4.180;2023-11-18T04:59:15;5.50;;;2.15;;
20669;SDS011;10494;50.868;4.180;2023-11-18T05:01:42;10.80;;;2.13;;
20669;SDS011;10494;50.868;4.180;2023-11-18T05:04:08;11.32;;;2.42;;
20669;SDS011;10494;50.868;4.180;2023-11-18T05:06:34;6.20;;;2.07;;
20669;SDS011;10494;50.868;4.180;2023-11-18T05:09:00;15.75;;;2.83;;
20669;SDS011;10494;50.868;4.180;2023-11-18T05:11:25;8.45;;;2.28;;
20669;SDS011;10494;50.868;4.180;2023-11-18T05:13:51;13.07;;;2.97;;
20669;SDS011;10494;50.868;4.180;2023-11-18T05:16:16;10.80;;;2.10;;
20669;SDS011;10494;50.868;4.180;2023-11-18T05:18:42;8.33;;;2.00;;
20669;SDS011;10494;50.868;4.180;2023-11-18T05:21:08;7.50;;;2.30;;
20669;SDS011;10494;50.868;4.180;2023-11-18T05:23:34;7.63;;;2.00;;
20669;SDS011;10494;50.868;4.180;2023-11-18T05:26:00;7.47;;;1.93;;
20669;SDS011;10494;50.868;4.180;2023-11-18T05:28:29;7.97;;;2.10;;
20669;SDS011;10494;50.868;4.180;2023-11-18T05:30:55;10.80;;;2.35;;
20669;SDS011;10494;50.868;4.180;2023-11-18T05:33:23;8.13;;;1.47;;
20669;SDS011;10494;50.868;4.180;2023-11-18T05:35:49;8.60;;;2.70;;
20669;SDS011;10494;50.868;4.180;2023-11-18T05:38:18;11.27;;;1.93;;
20669;SDS011;10494;50.868;4.180;2023-11-18T05:40:46;10.20;;;3.03;;
20669;SDS011;10494;50.868;4.180;2023-11-18T05:43:25;7.67;;;1.73;;
20669;SDS011;10494;50.868;4.180;2023-11-18T05:45:56;6.00;;;2.13;;
20669;SDS011;10494;50.868;4.180;2023-11-18T05:48:45;6.70;;;1.80;;
20669;SDS011;10494;50.868;4.180;2023-11-18T05:51:12;10.00;;;1.80;;
20669;SDS011;10494;50.868;4.180;2023-11-18T05:53:41;7.23;;;1.37;;
20669;SDS011;10494;50.868;4.180;2023-11-18T05:56:10;5.43;;;1.40;;
20669;SDS011;10494;50.868;4.180;2023-11-18T05:58:36;4.87;;;1.73;;
20669;SDS011;10494;50.868;4.180;2023-11-18T06:01:03;8.20;;;2.17;;
20669;SDS011;10494;50.868;4.180;2023-11-18T06:03:30;6.70;;;2.17;;
20669;SDS011;10494;50.868;4.180;2023-11-18T06:05:55;10.10;;;1.80;;
20669;SDS011;10494;50.868;4.180;2023-11-18T06:08:21;4.40;;;1.80;;
20669;SDS011;10494;50.868;4.180;2023-11-18T06:10:47;4.57;;;1.73;;
20669;SDS011;10494;50.868;4.180;2023-11-18T06:13:14;7.90;;;1.87;;
20669;SDS011;10494;50.868;4.180;2023-11-18T06:15:41;7.77;;;1.70;;
20669;SDS011;10494;50.868;4.180;2023-11-18T06:18:08;5.75;;;1.33;;
20669;SDS011;10494;50.868;4.180;2023-11-18T06:20:34;15.70;;;1.80;;
20669;SDS011;10494;50.868;4.180;2023-11-18T06:23:00;10.02;;;1.83;;
20669;SDS011;10494;50.868;4.180;2023-11-18T06:25:26;5.10;;;1.55;;
20669;SDS011;10494;50.868;4.180;2023-11-18T06:27:52;6.05;;;1.58;;
20669;SDS011;10494;50.868;4.180;2023-11-18T06:30:20;11.02;;;1.73;;
20669;SDS011;10494;50.868;4.180;2023-11-18T06:32:48;6.28;;;1.52;;
20669;SDS011;10494;50.868;4.180;2023-11-18T06:35:14;10.33;;;2.13;;
20669;SDS011;10494;50.868;4.180;2023-11-18T06:37:40;8.80;;;2.57;;
20669;SDS011;10494;50.868;4.180;2023-11-18T06:40:06;5.67;;;1.80;;
20669;SDS011;10494;50.868;4.180;2023-11-18T06:42:41;10.63;;;1.73;;
20669;SDS011;10494;50.868;4.180;2023-11-18T06:45:07;4.25;;;1.35;;
20669;SDS011;10494;50.868;4.180;2023-11-18T06:47:34;10.73;;;2.13;;
20669;SDS011;10494;50.868;4.180;2023-11-18T06:50:01;12.35;;;2.00;;
20669;SDS011;10494;50.868;4.180;2023-11-18T06:52:27;12.63;;;1.98;;
20669;SDS011;10494;50.868;4.180;2023-11-18T06:54:53;6.90;;;1.90;;
20669;SDS011;10494;50.868;4.180;2023-11-18T06:57:20;4.70;;;1.75;;
20669;SDS011;10494;50.868;4.180;2023-11-18T06:59:46;7.07;;;1.70;;
20669;SDS011;10494;50.868;4.180;2023-11-18T07:02:13;13.02;;;2.40;;
20669;SDS011;10494;50.868;4.180;2023-11-18T07:04:40;12.18;;;2.17;;
20669;SDS011;10494;50.868;4.180;2023-11-18T07:07:06;6.85;;;2.33;;
20669;SDS011;10494;50.868;4.180;2023-11-18T07:09:33;9.77;;;2.05;;
20669;SDS011;10494;50.868;4.180;2023-11-18T07:12:01;6.32;;;1.98;;
20669;SDS011;10494;50.868;4.180;2023-11-18T07:14:28;10.73;;;1.92;;
20669;SDS011;10494;50.868;4.180;2023-11-18T07:16:54;5.78;;;1.98;;
20669;SDS011;10494;50.868;4.180;2023-11-18T07:19:20;12.38;;;2.60;;
20669;SDS011;10494;50.868;4.180;2023-11-18T07:21:48;11.40;;;2.40;;
20669;SDS011;10494;50.868;4.180;2023-11-18T07:24:15;7.90;;;2.38;;
20669;SDS011;10494;50.868;4.180;2023-11-18T07:26:41;9.75;;;2.97;;
20669;SDS011;10494;50.868;4.180;2023-11-18T07:29:09;11.50;;;2.65;;
20669;SDS011;10494;50.868;4.180;2023-11-18T07:31:34;12.25;;;2.58;;
20669;SDS011;10494;50.868;4.180;2023-11-18T07:34:03;12.82;;;2.72;;
20669;SDS011;10494;50.868;4.180;2023-11-18T07:36:30;11.48;;;3.03;;
20669;SDS011;10494;50.868;4.180;2023-11-18T07:38:57;13.57;;;2.50;;
20669;SDS011;10494;50.868;4.180;2023-11-18T07:41:25;12.38;;;3.05;;
20669;SDS011;10494;50.868;4.180;2023-11-18T07:43:55;8.02;;;2.40;;
20669;SDS011;10494;50.868;4.180;2023-11-18T07:46:24;13.70;;;3.50;;
20669;SDS011;10494;50.868;4.180;2023-11-18T07:48:51;8.70;;;3.17;;
20669;SDS011;10494;50.868;4.180;2023-11-18T07:51:18;10.75;;;2.90;;
20669;SDS011;10494;50.868;4.180;2023-11-18T07:53:46;14.10;;;3.03;;
20669;SDS011;10494;50.868;4.180;2023-11-18T07:56:12;10.93;;;3.00;;
20669;SDS011;10494;50.868;4.180;2023-11-18T07:58:39;10.25;;;3.22;;
20669;SDS011;10494;50.868;4.180;2023-11-18T08:01:10;14.30;;;3.17;;
20669;SDS011;10494;50.868;4.180;2023-11-18T08:03:41;10.45;;;3.60;;
20669;SDS011;10494;50.868;4.180;2023-11-18T08:06:07;18.33;;;3.97;;
20669;SDS011;10494;50.868;4.180;2023-11-18T08:08:33;14.90;;;3.40;;
20669;SDS011;10494;50.868;4.180;2023-11-18T08:11:01;13.35;;;3.65;;
20669;SDS011;10494;50.868;4.180;2023-11-18T08:13:26;8.93;;;3.78;;
20669;SDS011;10494;50.868;4.180;2023-11-18T08:15:52;9.93;;;3.33;;
20669;SDS011;10494;50.868;4.180;2023-11-18T08:18:18;13.98;;;4.05;;
20669;SDS011;10494;50.868;4.180;2023-11-18T08:20:46;8.70;;;3.97;;
20669;SDS011;10494;50.868;4.180;2023-11-18T08:23:12;16.33;;;4.07;;
20669;SDS011;10494;50.868;4.180;2023-11-18T08:25:37;13.90;;;3.87;;
20669;SDS011;10494;50.868;4.180;2023-11-18T08:28:05;11.07;;;3.67;;
20669;SDS011;10494;50.868;4.180;2023-11-18T08:30:32;12.63;;;4.00;;
20669;SDS011;10494;50.868;4.180;2023-11-18T08:33:01;12.80;;;4.83;;
20669;SDS011;10494;50.868;4.180;2023-11-18T08:35:28;8.88;;;3.95;;
20669;SDS011;10494;50.868;4.180;2023-11-18T08:37:54;16.17;;;4.63;;
20669;SDS011;10494;50.868;4.180;2023-11-18T08:40:20;15.13;;;4.40;;
20669;SDS011;10494;50.868;4.180;2023-11-18T08:42:50;10.93;;;4.50;;
20669;SDS011;10494;50.868;4.180;2023-11-18T08:45:17;12.60;;;4.35;;
20669;SDS011;10494;50.868;4.180;2023-11-18T08:47:47;12.40;;;4.30;;
20669;SDS011;10494;50.868;4.180;2023-11-18T08:50:16;14.70;;;4.70;;
20669;SDS011;10494;50.868;4.180;2023-11-18T08:52:45;10.05;;;4.50;;
20669;SDS011;10494;50.868;4.180;2023-11-18T08:55:15;10.37;;;4.03;;
20669;SDS011;10494;50.868;4.180;2023-11-18T08:57:48;13.45;;;5.10;;
20669;SDS011;10494;50.868;4.180;2023-11-18T09:00:25;9.05;;;4.50;;
20669;SDS011;10494;50.868;4.180;2023-11-18T09:03:13;10.05;;;4.38;;
20669;SDS011;10494;50.868;4.180;2023-11-18T09:05:48;19.77;;;5.23;;
20669;SDS011;10494;50.868;4.180;2023-11-18T09:10:49;9.80;;;4.30;;
20669;SDS011;10494;50.868;4.180;2023-11-18T09:13:19;15.93;;;5.20;;
20669;SDS011;10494;50.868;4.180;2023-11-18T09:15:50;13.95;;;4.28;;
20669;SDS011;10494;50.868;4.180;2023-11-18T09:18:16;13.02;;;5.47;;
20669;SDS011;10494;50.868;4.180;2023-11-18T09:20:44;10.57;;;4.45;;
20669;SDS011;10494;50.868;4.180;2023-11-18T09:23:12;7.40;;;4.47;;
20669;SDS011;10494;50.868;4.180;2023-11-18T09:25:40;13.88;;;4.93;;
20669;SDS011;10494;50.868;4.180;2023-11-18T09:28:06;10.60;;;4.67;;
20669;SDS011;10494;50.868;4.180;2023-11-18T09:30:35;14.70;;;5.03;;
20669;SDS011;10494;50.868;4.180;2023-11-18T09:33:03;10.80;;;4.47;;
20669;SDS011;10494;50.868;4.180;2023-11-18T09:35:31;11.68;;;4.90;;
20669;SDS011;10494;50.868;4.180;2023-11-18T09:37:59;10.50;;;4.80;;
20669;SDS011;10494;50.868;4.180;2023-11-18T09:40:25;14.65;;;4.70;;
20669;SDS011;10494;50.868;4.180;2023-11-18T09:42:58;12.15;;;4.55;;
20669;SDS011;10494;50.868;4.180;2023-11-18T09:45:23;7.67;;;3.83;;
20669;SDS011;10494;50.868;4.180;2023-11-18T09:47:51;8.77;;;4.50;;
20669;SDS011;10494;50.868;4.180;2023-11-18T09:50:18;12.32;;;5.00;;
20669;SDS011;10494;50.868;4.180;2023-11-18T09:52:49;10.80;;;4.73;;
20669;SDS011;10494;50.868;4.180;2023-11-18T09:55:33;9.27;;;4.20;;
20669;SDS011;10494;50.868;4.180;2023-11-18T09:58:13;7.85;;;3.90;;
20669;SDS011;10494;50.868;4.180;2023-11-18T10:00:44;9.25;;;4.93;;
20669;SDS011;10494;50.868;4.180;2023-11-18T10:03:16;9.70;;;4.53;;
20669;SDS011;10494;50.868;4.180;2023-11-18T10:05:41;10.77;;;5.10;;
20669;SDS011;10494;50.868;4.180;2023-11-18T10:08:08;9.80;;;4.50;;
20669;SDS011;10494;50.868;4.180;2023-11-18T10:10:34;13.50;;;4.90;;
20669;SDS011;10494;50.868;4.180;2023-11-18T10:13:03;11.53;;;5.10;;
20669;SDS011;10494;50.868;4.180;2023-11-18T10:15:34;8.93;;;4.93;;
20669;SDS011;10494;50.868;4.180;2023-11-18T10:18:00;10.40;;;4.80;;
20669;SDS011;10494;50.868;4.180;2023-11-18T10:23:12;8.18;;;4.95;;
20669;SDS011;10494;50.868;4.180;2023-11-18T10:25:56;8.47;;;4.80;;
20669;SDS011;10494;50.868;4.180;2023-11-18T10:28:23;7.20;;;4.63;;
20669;SDS011;10494;50.868;4.180;2023-11-18T10:30:53;11.63;;;4.53;;
20669;SDS011;10494;50.868;4.180;2023-11-18T10:33:40;11.60;;;4.17;;
20669;SDS011;10494;50.868;4.180;2023-11-18T10:36:21;10.18;;;4.40;;
20669;SDS011;10494;50.868;4.180;2023-11-18T10:38:49;6.90;;;4.40;;
20669;SDS011;10494;50.868;4.180;2023-11-18T10:41:17;8.57;;;4.20;;
20669;SDS011;10494;50.868;4.180;2023-11-18T10:43:44;11.73;;;4.25;;
20669;SDS011;10494;50.868;4.180;2023-11-18T10:46:10;9.52;;;3.33;;
20669;SDS011;10494;50.868;4.180;2023-11-18T10:48:40;9.60;;;4.10;;
20669;SDS011;10494;50.868;4.180;2023-11-18T10:51:12;12.10;;;4.72;;
20669;SDS011;10494;50.868;4.180;2023-11-18T10:53:42;8.03;;;4.20;;
20669;SDS011;10494;50.868;4.180;2023-11-18T10:56:21;7.97;;;3.60;;
20669;SDS011;10494;50.868;4.180;2023-11-18T11:01:33;8.90;;;2.97;;
20669;SDS011;10494;50.868;4.180;2023-11-18T11:04:14;9.18;;;2.95;;
20669;SDS011;10494;50.868;4.180;2023-11-18T11:06:45;3.80;;;2.42;;
20669;SDS011;10494;50.868;4.180;2023-11-18T11:09:21;6.07;;;2.70;;
20669;SDS011;10494;50.868;4.180;2023-11-18T11:12:00;6.38;;;2.47;;
20669;SDS011;10494;50.868;4.180;2023-11-18T11:14:34;5.80;;;2.10;;
20669;SDS011;10494;50.868;4.180;2023-11-18T11:17:16;7.00;;;2.30;;
20669;SDS011;10494;50.868;4.180;2023-11-18T11:22:46;9.65;;;2.38;;
20669;SDS011;10494;50.868;4.180;2023-11-18T11:25:24;5.15;;;1.90;;
20669;SDS011;10494;50.868;4.180;2023-11-18T11:28:01;4.18;;;2.50;;
20669;SDS011;10494;50.868;4.180;2023-11-18T11:30:50;2.05;;;1.50;;
20669;SDS011;10494;50.868;4.180;2023-11-18T11:36:05;4.95;;;1.33;;
20669;SDS011;10494;50.868;4.180;2023-11-18T11:38:36;3.30;;;1.20;;
20669;SDS011;10494;50.868;4.180;2023-11-18T11:41:06;2.10;;;1.52;;
20669;SDS011;10494;50.868;4.180;2023-11-18T11:43:42;5.30;;;1.40;;
20669;SDS011;10494;50.868;4.180;2023-11-18T11:46:08;1.73;;;1.10;;
20669;SDS011;10494;50.868;4.180;2023-11-18T11:48:36;3.20;;;1.10;;
20669;SDS011;10494;50.868;4.180;2023-11-18T11:53:47;2.78;;;1.15;;
20669;SDS011;10494;50.868;4.180;2023-11-18T11:56:18;2.57;;;1.10;;
20669;SDS011;10494;50.868;4.180;2023-11-18T11:58:49;2.60;;;1.05;;
20669;SDS011;10494;50.868;4.180;2023-11-18T12:01:25;2.70;;;0.95;;
20669;SDS011;10494;50.868;4.180;2023-11-18T12:03:58;4.03;;;1.20;;
20669;SDS011;10494;50.868;4.180;2023-11-18T12:06:31;4.68;;;1.55;;
20669;SDS011;10494;50.868;4.180;2023-11-18T12:09:00;1.40;;;0.90;;
20669;SDS011;10494;50.868;4.180;2023-11-18T12:11:32;1.67;;;1.00;;
20669;SDS011;10494;50.868;4.180;2023-11-18T12:14:08;2.63;;;1.02;;
20669;SDS011;10494;50.868;4.180;2023-11-18T12:16:58;1.75;;;1.20;;
20669;SDS011;10494;50.868;4.180;2023-11-18T12:19:33;2.38;;;1.17;;
20669;SDS011;10494;50.868;4.180;2023-11-18T12:22:11;1.17;;;0.80;;
20669;SDS011;10494;50.868;4.180;2023-11-18T12:24:42;0.90;;;0.80;;
20669;SDS011;10494;50.868;4.180;2023-11-18T12:35:24;2.08;;;1.00;;
20669;SDS011;10494;50.868;4.180;2023-11-18T12:40:54;1.45;;;0.90;;
20669;SDS011;10494;50.868;4.180;2023-11-18T12:44:02;1.75;;;1.08;;
20669;SDS011;10494;50.868;4.180;2023-11-18T12:46:47;1.00;;;0.80;;
20669;SDS011;10494;50.868;4.180;2023-11-18T12:49:21;1.10;;;0.70;;
20669;SDS011;10494;50.868;4.180;2023-11-18T12:51:54;0.88;;;0.88;;
20669;SDS011;10494;50.868;4.180;2023-11-18T12:54:21;2.83;;;0.82;;
20669;SDS011;10494;50.868;4.180;2023-11-18T12:56:50;3.17;;;1.10;;
20669;SDS011;10494;50.868;4.180;2023-11-18T12:59:18;1.00;;;0.90;;
20669;SDS011;10494;50.868;4.180;2023-11-18T13:01:52;1.05;;;0.95;;
20669;SDS011;10494;50.868;4.180;2023-11-18T13:04:24;0.65;;;0.60;;
20669;SDS011;10494;50.868;4.180;2023-11-18T13:06:50;1.30;;;0.90;;
20669;SDS011;10494;50.868;4.180;2023-11-18T13:09:17;2.00;;;1.17;;
20669;SDS011;10494;50.868;4.180;2023-11-18T13:11:55;1.60;;;0.80;;
20669;SDS011;10494;50.868;4.180;2023-11-18T13:14:28;1.50;;;1.02;;
20669;SDS011;10494;50.868;4.180;2023-11-18T13:17:01;1.38;;;0.93;;
20669;SDS011;10494;50.868;4.180;2023-11-18T13:19:30;2.22;;;1.00;;
20669;SDS011;10494;50.868;4.180;2023-11-18T13:21:59;4.22;;;1.02;;
20669;SDS011;10494;50.868;4.180;2023-11-18T13:24:26;0.90;;;0.77;;
20669;SDS011;10494;50.868;4.180;2023-11-18T13:26:56;1.80;;;0.90;;
20669;SDS011;10494;50.868;4.180;2023-11-18T13:29:28;1.13;;;0.68;;
20669;SDS011;10494;50.868;4.180;2023-11-18T13:31:54;1.70;;;0.90;;
20669;SDS011;10494;50.868;4.180;2023-11-18T13:34:22;2.00;;;0.90;;
20669;SDS011;10494;50.868;4.180;2023-11-18T13:36:50;1.55;;;0.80;;
20669;SDS011;10494;50.868;4.180;2023-11-18T13:39:19;1.27;;;1.02;;
20669;SDS011;10494;50.868;4.180;2023-11-18T13:41:49;1.23;;;1.02;;
20669;SDS011;10494;50.868;4.180;2023-11-18T13:44:48;1.45;;;1.05;;
20669;SDS011;10494;50.868;4.180;2023-11-18T13:47:09;1.88;;;1.25;;
20669;SDS011;10494;50.868;4.180;2023-11-18T13:49:37;1.63;;;1.05;;
20669;SDS011;10494;50.868;4.180;2023-11-18T13:52:06;1.85;;;1.20;;
20669;SDS011;10494;50.868;4.180;2023-11-18T13:54:37;3.58;;;1.05;;
20669;SDS011;10494;50.868;4.180;2023-11-18T13:57:06;2.70;;;0.95;;
20669;SDS011;10494;50.868;4.180;2023-11-18T13:59:32;2.10;;;1.00;;
20669;SDS011;10494;50.868;4.180;2023-11-18T14:01:59;1.67;;;1.00;;
20669;SDS011;10494;50.868;4.180;2023-11-18T14:04:29;3.47;;;1.38;;
20669;SDS011;10494;50.868;4.180;2023-11-18T14:06:59;1.92;;;1.10;;
20669;SDS011;10494;50.868;4.180;2023-11-18T14:09:29;3.75;;;1.20;;
20669;SDS011;10494;50.868;4.180;2023-11-18T14:11:57;1.90;;;1.15;;
20669;SDS011;10494;50.868;4.180;2023-11-18T14:14:23;2.55;;;1.42;;
20669;SDS011;10494;50.868;4.180;2023-11-18T14:16:50;2.83;;;1.25;;
20669;SDS011;10494;50.868;4.180;2023-11-18T14:19:18;4.20;;;1.70;;
20669;SDS011;10494;50.868;4.180;2023-11-18T14:21:43;4.60;;;2.00;;
20669;SDS011;10494;50.868;4.180;2023-11-18T14:24:09;3.83;;;1.55;;
20669;SDS011;10494;50.868;4.180;2023-11-18T14:26:36;5.85;;;2.20;;
20669;SDS011;10494;50.868;4.180;2023-11-18T14:29:04;10.02;;;2.60;;
20669;SDS011;10494;50.868;4.180;2023-11-18T14:31:32;8.07;;;2.80;;
20669;SDS011;10494;50.868;4.180;2023-11-18T14:33:59;14.57;;;2.58;;
20669;SDS011;10494;50.868;4.180;2023-11-18T14:36:27;11.85;;;2.70;;
20669;SDS011;10494;50.868;4.180;2023-11-18T14:38:53;12.00;;;2.45;;
20669;SDS011;10494;50.868;4.180;2023-11-18T14:41:19;11.38;;;2.47;;
20669;SDS011;10494;50.868;4.180;2023-11-18T14:43:49;10.20;;;3.33;;
20669;SDS011;10494;50.868;4.180;2023-11-18T14:46:15;10.52;;;3.53;;
20669;SDS011;10494;50.868;4.180;2023-11-18T14:48:41;15.55;;;3.58;;
20669;SDS011;10494;50.868;4.180;2023-11-18T14:51:06;9.30;;;2.60;;
20669;SDS011;10494;50.868;4.180;2023-11-18T14:53:32;11.02;;;2.88;;
20669;SDS011;10494;50.868;4.180;2023-11-18T14:55:59;10.93;;;2.45;;
20669;SDS011;10494;50.868;4.180;2023-11-18T14:58:25;11.50;;;2.83;;
20669;SDS011;10494;50.868;4.180;2023-11-18T15:00:51;8.68;;;2.70;;
20669;SDS011;10494;50.868;4.180;2023-11-18T15:03:16;7.03;;;2.38;;
20669;SDS011;10494;50.868;4.180;2023-11-18T15:05:42;8.63;;;2.67;;
20669;SDS011;10494;50.868;4.180;2023-11-18T15:08:09;7.72;;;2.47;;
20669;SDS011;10494;50.868;4.180;2023-11-18T15:10:39;6.97;;;2.33;;
20669;SDS011;10494;50.868;4.180;2023-11-18T15:13:07;6.50;;;2.30;;
20669;SDS011;10494;50.868;4.180;2023-11-18T15:15:37;4.82;;;2.28;;
20669;SDS011;10494;50.868;4.180;2023-11-18T15:18:06;6.80;;;1.90;;